Aviation Digital Data Service (ADDS)

Output produced by METARs form (1302 UTC 20 October 2014)
found at http://aviationweather.gov/adds/metars/
 
KJFK 201123Z 2012/2118 27006KT P6SM BKN220 
     FM201400 22010KT P6SM SCT150 BKN200 
     FM202000 20012KT P6SM FEW035 OVC150 
     FM210000 20009KT P6SM SCT035 OVC120 
     FM210600 20006KT P6SM BKN035 OVC100 
     FM211000 15006KT P6SM BKN035